Time,TemperatureF,DewpointF,PressureIn,WindDirection,WindDirectionDegrees,WindSpeedMPH,WindSpeedGustMPH,Humidity,HourlyPrecipIn,Conditions,Clouds,dailyrainin,SoftwareType,DateUTC
2013-03-02 00:01:00,27.0,14.0,30.34,North,11,0.0,0.0,58,0.00,,,0.00,,2013-03-02 08:01:00,
2013-03-02 00:11:00,27.0,14.0,30.34,North,11,0.0,0.0,58,0.00,,,0.00,,2013-03-02 08:11:00,
2013-03-02 00:21:00,28.0,14.0,30.34,North,11,0.0,0.0,55,0.00,,,0.00,,2013-03-02 08:21:00,
2013-03-02 00:32:00,28.0,14.0,30.34,North,11,0.0,0.0,55,0.00,,,0.00,,2013-03-02 08:32:00,
2013-03-02 00:42:00,28.0,14.0,30.34,North,11,0.0,0.0,55,0.00,,,0.00,,2013-03-02 08:42:00,
2013-03-02 00:52:00,28.0,14.0,30.34,North,11,0.0,0.0,55,0.00,,,0.00,,2013-03-02 08:52:00,
2013-03-02 01:01:00,28.0,15.0,30.35,North,11,0.0,0.0,58,0.00,,,0.00,,2013-03-02 09:01:00,
2013-03-02 01:11:00,28.0,14.0,30.35,North,11,0.0,0.0,55,0.00,,,0.00,,2013-03-02 09:11:00,
2013-03-02 01:21:00,28.0,14.0,30.35,North,11,0.0,0.0,55,0.00,,,0.00,,2013-03-02 09:21:00,
2013-03-02 01:31:00,28.0,14.0,30.34,North,11,0.0,0.0,56,0.00,,,0.00,,2013-03-02 09:31:00,
2013-03-02 01:42:00,28.0,14.0,30.34,North,11,0.0,0.0,56,0.00,,,0.00,,2013-03-02 09:42:00,
2013-03-02 01:51:00,28.0,14.0,30.34,North,11,0.0,0.0,56,0.00,,,0.00,,2013-03-02 09:51:00,
2013-03-02 02:01:00,29.0,14.0,30.34,North,11,0.0,0.0,52,0.00,,,0.00,,2013-03-02 10:01:00,
2013-03-02 02:21:00,28.0,12.0,30.33,North,11,0.0,0.0,51,0.00,,,0.00,,2013-03-02 10:21:00,
2013-03-02 02:31:00,27.0,11.0,30.33,North,11,0.0,0.0,51,0.00,,,0.00,,2013-03-02 10:31:00,
2013-03-02 02:42:00,27.0,11.0,30.33,North,11,0.0,0.0,51,0.00,,,0.00,,2013-03-02 10:42:00,
2013-03-02 02:52:00,26.0,15.0,30.33,North,11,0.0,0.0,62,0.00,,,0.00,,2013-03-02 10:52:00,
2013-03-02 03:01:00,27.0,16.0,30.32,North,11,0.0,0.0,62,0.00,,,0.00,,2013-03-02 11:01:00,
2013-03-02 03:11:00,27.0,16.0,30.32,North,11,0.0,0.0,62,0.00,,,0.00,,2013-03-02 11:11:00,
2013-03-02 03:21:00,26.0,13.0,30.32,North,11,0.0,0.0,58,0.00,,,0.00,,2013-03-02 11:21:00,
2013-03-02 03:31:00,26.0,13.0,30.32,North,11,0.0,0.0,58,0.00,,,0.00,,2013-03-02 11:31:00,
2013-03-02 03:41:00,26.0,13.0,30.32,North,11,0.0,0.0,58,0.00,,,0.00,,2013-03-02 11:41:00,
2013-03-02 03:52:00,25.0,12.0,30.32,North,11,0.0,0.0,58,0.00,,,0.00,,2013-03-02 11:52:00,
2013-03-02 04:02:00,25.0,15.0,30.31,North,11,0.0,0.0,64,0.00,,,0.00,,2013-03-02 12:02:00,
2013-03-02 04:11:00,25.0,15.0,30.31,North,11,0.0,0.0,64,0.00,,,0.00,,2013-03-02 12:11:00,
2013-03-02 04:21:00,25.0,15.0,30.31,North,11,0.0,0.0,65,0.00,,,0.00,,2013-03-02 12:21:00,
2013-03-02 04:32:00,24.0,14.0,30.31,North,11,0.0,0.0,65,0.00,,,0.00,,2013-03-02 12:32:00,
2013-03-02 04:42:00,24.0,14.0,30.31,North,11,0.0,0.0,65,0.00,,,0.00,,2013-03-02 12:42:00,
2013-03-02 04:53:00,25.0,15.0,30.31,North,11,0.0,0.0,65,0.00,,,0.00,,2013-03-02 12:53:00,
2013-03-02 05:01:00,25.0,15.0,30.31,North,11,0.0,0.0,65,0.00,,,0.00,,2013-03-02 13:01:00,
2013-03-02 05:11:00,25.0,15.0,30.31,North,11,0.0,0.0,65,0.00,,,0.00,,2013-03-02 13:11:00,
2013-03-02 05:21:00,25.0,14.0,30.31,North,11,0.0,0.0,62,0.00,,,0.00,,2013-03-02 13:21:00,
2013-03-02 05:31:00,25.0,14.0,30.31,North,11,0.0,0.0,63,0.00,,,0.00,,2013-03-02 13:31:00,
2013-03-02 05:41:00,25.0,14.0,30.31,North,11,0.0,0.0,63,0.00,,,0.00,,2013-03-02 13:41:00,
2013-03-02 05:52:00,25.0,14.0,30.31,North,11,0.0,0.0,62,0.00,,,0.00,,2013-03-02 13:52:00,
2013-03-02 06:01:00,25.0,14.0,30.31,North,11,0.0,0.0,62,0.00,,,0.00,,2013-03-02 14:01:00,
2013-03-02 06:11:00,25.0,14.0,30.31,North,11,0.0,0.0,62,0.00,,,0.00,,2013-03-02 14:11:00,
2013-03-02 06:21:00,24.0,13.0,30.32,WNW,284,0.0,0.0,62,0.00,,,0.00,,2013-03-02 14:21:00,
2013-03-02 06:31:00,23.0,12.0,30.31,WNW,284,0.0,0.0,62,0.00,,,0.00,,2013-03-02 14:31:00,
2013-03-02 06:41:00,23.0,12.0,30.31,WNW,284,0.0,0.0,62,0.00,,,0.00,,2013-03-02 14:41:00,
2013-03-02 06:52:00,24.0,14.0,30.32,WNW,284,0.0,0.0,65,0.00,,,0.00,,2013-03-02 14:52:00,
2013-03-02 07:01:00,24.0,14.0,30.32,WNW,284,0.0,0.0,66,0.00,,,0.00,,2013-03-02 15:01:00,
2013-03-02 07:11:00,24.0,14.0,30.32,WNW,284,0.0,0.0,66,0.00,,,0.00,,2013-03-02 15:11:00,
2013-03-02 07:21:00,24.0,14.0,30.32,WNW,284,0.0,0.0,66,0.00,,,0.00,,2013-03-02 15:21:00,
2013-03-02 07:31:00,28.0,15.0,30.32,WNW,284,0.0,0.0,58,0.00,,,0.00,,2013-03-02 15:31:00,
2013-03-02 07:41:00,28.0,15.0,30.32,WNW,284,0.0,0.0,58,0.00,,,0.00,,2013-03-02 15:41:00,
2013-03-02 07:52:00,28.0,15.0,30.32,WNW,284,0.0,0.0,58,0.00,,,0.00,,2013-03-02 15:52:00,
2013-03-02 08:01:00,31.0,18.0,30.32,WNW,284,0.0,0.0,57,0.00,,,0.00,,2013-03-02 16:01:00,
2013-03-02 08:11:00,31.0,18.0,30.32,WNW,284,0.0,0.0,57,0.00,,,0.00,,2013-03-02 16:11:00,
2013-03-02 08:21:00,34.0,20.0,30.32,WNW,284,0.0,0.0,57,0.00,,,0.00,,2013-03-02 16:21:00,
2013-03-02 08:31:00,35.0,10.0,30.31,WNW,284,0.0,0.0,35,0.00,,,0.00,,2013-03-02 16:31:00,
2013-03-02 08:41:00,35.0,10.0,30.31,WNW,284,0.0,0.0,35,0.00,,,0.00,,2013-03-02 16:41:00,
2013-03-02 08:51:00,35.0,10.0,30.31,WNW,284,0.0,0.0,35,0.00,,,0.00,,2013-03-02 16:51:00,
2013-03-02 09:01:00,46.0,19.0,30.31,WNW,284,0.0,0.0,34,0.00,,,0.00,,2013-03-02 17:01:00,
2013-03-02 09:11:00,46.0,19.0,30.31,WNW,284,0.0,0.0,34,0.00,,,0.00,,2013-03-02 17:11:00,
2013-03-02 09:21:00,50.0,23.0,30.31,West,275,0.0,0.0,34,0.00,,,0.00,,2013-03-02 17:21:00,
2013-03-02 09:31:00,53.0,17.0,30.31,West,275,0.0,0.0,24,0.00,,,0.00,,2013-03-02 17:31:00,
2013-03-02 09:41:00,53.0,17.0,30.31,West,275,0.0,0.0,24,0.00,,,0.00,,2013-03-02 17:41:00,
2013-03-02 09:52:00,54.0,18.0,30.31,WSW,240,0.0,1.0,24,0.00,,,0.00,,2013-03-02 17:52:00,
2013-03-02 10:01:00,54.0,18.0,30.31,WSW,240,0.0,1.0,24,0.00,,,0.00,,2013-03-02 18:01:00,
2013-03-02 10:11:00,54.0,18.0,30.31,WSW,240,0.0,1.0,24,0.00,,,0.00,,2013-03-02 18:11:00,
2013-03-02 10:52:00,60.0,12.0,30.30,SSW,213,1.0,5.0,15,0.00,,,0.00,,2013-03-02 18:52:00,
2013-03-02 11:01:00,60.0,11.0,30.30,SW,215,0.0,0.0,14,0.00,,,0.00,,2013-03-02 19:01:00,
2013-03-02 11:11:00,60.0,11.0,30.30,SW,215,0.0,0.0,14,0.00,,,0.00,,2013-03-02 19:11:00,
2013-03-02 11:21:00,61.0,11.0,30.30,SSW,206,2.0,6.0,14,0.00,,,0.00,,2013-03-02 19:21:00,
2013-03-02 11:31:00,61.0,11.0,30.30,SW,232,2.0,2.0,14,0.00,,,0.00,,2013-03-02 19:31:00,
2013-03-02 11:42:00,61.0,11.0,30.30,SW,232,2.0,2.0,14,0.00,,,0.00,,2013-03-02 19:42:00,
2013-03-02 11:52:00,60.0,11.0,30.29,SSW,193,0.0,6.0,14,0.00,,,0.00,,2013-03-02 19:52:00,
2013-03-02 12:01:00,61.0,16.0,30.29,SW,222,2.0,10.0,17,0.00,,,0.00,,2013-03-02 20:01:00,
2013-03-02 12:11:00,61.0,16.0,30.29,SW,222,2.0,10.0,17,0.00,,,0.00,,2013-03-02 20:11:00,
2013-03-02 12:21:00,62.0,17.0,30.28,SSW,210,2.0,10.0,17,0.00,,,0.00,,2013-03-02 20:21:00,
2013-03-02 12:31:00,61.0,20.0,30.28,South,172,3.0,12.0,20,0.00,,,0.00,,2013-03-02 20:31:00,
2013-03-02 12:41:00,61.0,20.0,30.28,South,172,3.0,12.0,20,0.00,,,0.00,,2013-03-02 20:41:00,
2013-03-02 12:52:00,61.0,18.0,30.28,WSW,248,2.0,8.0,19,0.00,,,0.00,,2013-03-02 20:52:00,
2013-03-02 13:02:00,61.0,18.0,30.27,SSW,199,4.0,0.0,19,0.00,,,0.00,,2013-03-02 21:02:00,
2013-03-02 13:11:00,61.0,18.0,30.27,SSW,199,4.0,0.0,19,0.00,,,0.00,,2013-03-02 21:11:00,
2013-03-02 13:21:00,61.0,17.0,30.27,SSW,198,2.0,5.0,18,0.00,,,0.00,,2013-03-02 21:21:00,
2013-03-02 13:31:00,61.0,17.0,30.26,SE,131,2.0,7.0,18,0.00,,,0.00,,2013-03-02 21:31:00,
2013-03-02 13:41:00,61.0,17.0,30.26,SE,131,2.0,7.0,18,0.00,,,0.00,,2013-03-02 21:41:00,
2013-03-02 13:52:00,60.0,15.0,30.26,WSW,240,4.0,13.0,17,0.00,,,0.00,,2013-03-02 21:52:00,
2013-03-02 14:01:00,60.0,16.0,30.26,SW,222,2.0,13.0,18,0.00,,,0.00,,2013-03-02 22:01:00,
2013-03-02 14:11:00,60.0,16.0,30.26,SW,222,2.0,13.0,18,0.00,,,0.00,,2013-03-02 22:11:00,
2013-03-02 14:21:00,61.0,16.0,30.25,SW,216,2.0,6.0,17,0.00,,,0.00,,2013-03-02 22:21:00,
2013-03-02 14:31:00,60.0,15.0,30.25,SW,219,0.0,6.0,17,0.00,,,0.00,,2013-03-02 22:31:00,
2013-03-02 14:41:00,60.0,15.0,30.25,SW,219,0.0,6.0,17,0.00,,,0.00,,2013-03-02 22:41:00,
2013-03-02 14:52:00,60.0,14.0,30.25,SSW,212,3.0,5.0,16,0.00,,,0.00,,2013-03-02 22:52:00,
2013-03-02 15:01:00,59.0,13.0,30.24,SW,215,0.0,6.0,16,0.00,,,0.00,,2013-03-02 23:01:00,
2013-03-02 15:11:00,59.0,16.0,30.24,South,175,3.0,10.0,18,0.00,,,0.00,,2013-03-02 23:11:00,
2013-03-02 15:21:00,59.0,16.0,30.24,South,175,3.0,10.0,18,0.00,,,0.00,,2013-03-02 23:21:00,
2013-03-02 15:31:00,58.0,15.0,30.24,WSW,239,3.0,10.0,18,0.00,,,0.00,,2013-03-02 23:31:00,
2013-03-02 15:41:00,58.0,15.0,30.24,WSW,239,3.0,10.0,18,0.00,,,0.00,,2013-03-02 23:41:00,
2013-03-02 15:52:00,58.0,17.0,30.24,SW,223,1.0,4.0,20,0.00,,,0.00,,2013-03-02 23:52:00,
2013-03-02 16:02:00,58.0,17.0,30.24,SW,223,1.0,4.0,20,0.00,,,0.00,,2013-03-03 00:02:00,
2013-03-02 16:11:00,58.0,17.0,30.24,SW,223,1.0,4.0,20,0.00,,,0.00,,2013-03-03 00:11:00,
2013-03-02 16:22:00,57.0,17.0,30.23,WNW,301,1.0,6.0,21,0.00,,,0.00,,2013-03-03 00:22:00,
2013-03-02 16:31:00,57.0,17.0,30.23,SW,223,0.0,0.0,21,0.00,,,0.00,,2013-03-03 00:31:00,
2013-03-02 16:42:00,57.0,17.0,30.23,SW,223,0.0,0.0,21,0.00,,,0.00,,2013-03-03 00:42:00,
2013-03-02 16:52:00,55.0,17.0,30.22,South,186,1.0,4.0,22,0.00,,,0.00,,2013-03-03 00:52:00,
2013-03-02 17:01:00,54.0,14.0,30.22,SSW,212,2.0,5.0,20,0.00,,,0.00,,2013-03-03 01:01:00,
2013-03-02 17:11:00,54.0,14.0,30.22,SSW,212,2.0,5.0,20,0.00,,,0.00,,2013-03-03 01:11:00,
2013-03-02 17:21:00,54.0,14.0,30.22,SW,226,1.0,6.0,20,0.00,,,0.00,,2013-03-03 01:21:00,
2013-03-02 17:31:00,52.0,13.0,30.21,SSW,198,0.0,1.0,21,0.00,,,0.00,,2013-03-03 01:31:00,
2013-03-02 17:41:00,52.0,13.0,30.21,SSW,198,0.0,1.0,21,0.00,,,0.00,,2013-03-03 01:41:00,
2013-03-02 17:52:00,51.0,14.0,30.21,SSW,193,1.0,4.0,22,0.00,,,0.00,,2013-03-03 01:52:00,
2013-03-02 18:01:00,50.0,15.0,30.21,SSW,206,0.0,1.0,24,0.00,,,0.00,,2013-03-03 02:01:00,
2013-03-02 18:11:00,50.0,15.0,30.21,SSW,206,0.0,1.0,24,0.00,,,0.00,,2013-03-03 02:11:00,
2013-03-02 18:21:00,49.0,14.0,30.21,SSE,158,0.0,0.0,24,0.00,,,0.00,,2013-03-03 02:21:00,
2013-03-02 18:31:00,48.0,16.0,30.21,WSW,247,0.0,1.0,28,0.00,,,0.00,,2013-03-03 02:31:00,
2013-03-02 18:41:00,48.0,16.0,30.21,WSW,247,0.0,1.0,28,0.00,,,0.00,,2013-03-03 02:41:00,
2013-03-02 18:52:00,47.0,16.0,30.22,NW,304,0.0,0.0,28,0.00,,,0.00,,2013-03-03 02:52:00,
2013-03-02 19:01:00,46.0,15.0,30.21,NW,304,0.0,0.0,28,0.00,,,0.00,,2013-03-03 03:01:00,
2013-03-02 19:11:00,46.0,15.0,30.21,NW,304,0.0,0.0,28,0.00,,,0.00,,2013-03-03 03:11:00,
2013-03-02 19:21:00,45.0,14.0,30.21,NW,304,0.0,0.0,28,0.00,,,0.00,,2013-03-03 03:21:00,
2013-03-02 19:31:00,43.0,12.0,30.21,NW,304,0.0,0.0,28,0.00,,,0.00,,2013-03-03 03:31:00,
2013-03-02 19:41:00,43.0,12.0,30.21,NW,304,0.0,0.0,28,0.00,,,0.00,,2013-03-03 03:41:00,
2013-03-02 19:51:00,43.0,12.0,30.21,NW,304,0.0,0.0,28,0.00,,,0.00,,2013-03-03 03:51:00,
2013-03-02 20:01:00,39.0,19.0,30.21,NW,304,0.0,0.0,44,0.00,,,0.00,,2013-03-03 04:01:00,
2013-03-02 20:11:00,39.0,19.0,30.21,NW,304,0.0,0.0,44,0.00,,,0.00,,2013-03-03 04:11:00,
2013-03-02 20:21:00,39.0,19.0,30.21,NW,304,0.0,0.0,44,0.00,,,0.00,,2013-03-03 04:21:00,
2013-03-02 20:31:00,38.0,20.0,30.21,WNW,301,0.0,0.0,47,0.00,,,0.00,,2013-03-03 04:31:00,
2013-03-02 20:41:00,38.0,20.0,30.21,WNW,301,0.0,0.0,47,0.00,,,0.00,,2013-03-03 04:41:00,
2013-03-02 20:51:00,38.0,20.0,30.21,WNW,301,0.0,0.0,48,0.00,,,0.00,,2013-03-03 04:51:00,
2013-03-02 21:01:00,38.0,20.0,30.21,WNW,301,0.0,0.0,48,0.00,,,0.00,,2013-03-03 05:01:00,
2013-03-02 21:11:00,38.0,20.0,30.21,WNW,301,0.0,0.0,48,0.00,,,0.00,,2013-03-03 05:11:00,
2013-03-02 21:21:00,38.0,20.0,30.21,WSW,244,0.0,1.0,47,0.00,,,0.00,,2013-03-03 05:21:00,
2013-03-02 21:32:00,40.0,20.0,30.21,SW,222,0.0,1.0,45,0.00,,,0.00,,2013-03-03 05:32:00,
2013-03-02 21:42:00,40.0,20.0,30.21,SW,222,0.0,1.0,45,0.00,,,0.00,,2013-03-03 05:42:00,
2013-03-02 21:52:00,40.0,20.0,30.22,WSW,247,0.0,4.0,45,0.00,,,0.00,,2013-03-03 05:52:00,
2013-03-02 22:01:00,43.0,16.0,30.21,South,169,3.0,12.0,33,0.00,,,0.00,,2013-03-03 06:01:00,
2013-03-02 22:11:00,43.0,16.0,30.21,South,169,3.0,12.0,33,0.00,,,0.00,,2013-03-03 06:11:00,
2013-03-02 22:21:00,42.0,16.0,30.21,SSW,212,4.0,12.0,35,0.00,,,0.00,,2013-03-03 06:21:00,
2013-03-02 22:31:00,43.0,12.0,30.21,West,265,2.0,10.0,28,0.00,,,0.00,,2013-03-03 06:31:00,
2013-03-02 22:42:00,43.0,12.0,30.21,West,265,2.0,10.0,28,0.00,,,0.00,,2013-03-03 06:42:00,
2013-03-02 22:51:00,43.0,11.0,30.21,SSW,206,1.0,10.0,27,0.00,,,0.00,,2013-03-03 06:51:00,
2013-03-02 23:01:00,44.0,9.0,30.21,WSW,254,2.0,6.0,23,0.00,,,0.00,,2013-03-03 07:01:00,
2013-03-02 23:11:00,44.0,9.0,30.21,WSW,254,2.0,6.0,23,0.00,,,0.00,,2013-03-03 07:11:00,
2013-03-02 23:21:00,44.0,10.0,30.20,SW,220,1.0,6.0,24,0.00,,,0.00,,2013-03-03 07:21:00,
2013-03-02 23:31:00,43.0,12.0,30.20,WNW,291,0.0,1.0,28,0.00,,,0.00,,2013-03-03 07:31:00,
2013-03-02 23:42:00,43.0,12.0,30.20,WNW,291,0.0,1.0,28,0.00,,,0.00,,2013-03-03 07:42:00,
2013-03-02 23:51:00,41.0,12.0,30.20,WNW,291,0.0,0.0,30,0.00,,,0.00,,2013-03-03 07:51:00,